createdAt,value
2019-02-21T00:02:11.781Z,101852.92
2019-02-21T00:04:40.240Z,101856.05
2019-02-21T00:07:08.725Z,101854.80
2019-02-21T00:09:37.205Z,101853.41
2019-02-21T00:12:05.692Z,101852.95
2019-02-21T00:14:34.153Z,101845.48
2019-02-21T00:17:02.629Z,101848.64
2019-02-21T00:19:31.083Z,101849.89
2019-02-21T00:21:59.563Z,101849.52
2019-02-21T00:24:28.027Z,101842.36
2019-02-21T00:26:56.512Z,101850.83
2019-02-21T00:29:24.986Z,101856.67
2019-02-21T00:31:53.452Z,101852.77
2019-02-21T00:34:21.922Z,101851.42
2019-02-21T00:36:50.406Z,101850.13
2019-02-21T00:39:18.929Z,101844.70
2019-02-21T00:41:47.417Z,101845.58
2019-02-21T00:44:15.878Z,101847.36
2019-02-21T00:46:44.368Z,101850.49
2019-02-21T00:49:12.827Z,101851.37
2019-02-21T00:51:41.321Z,101841.16
2019-02-21T00:54:09.805Z,101843.33
2019-02-21T00:56:38.273Z,101842.00
2019-02-21T00:59:06.735Z,101850.95
2019-02-21T01:01:35.241Z,101840.27
2019-02-21T01:04:03.699Z,101841.09
2019-02-21T01:06:32.207Z,101834.42
2019-02-21T01:09:00.667Z,101835.30
2019-02-21T01:11:29.125Z,101838.39
2019-02-21T01:13:57.602Z,101844.64
2019-02-21T01:16:26.060Z,101848.22
2019-02-21T01:18:54.542Z,101842.09
2019-02-21T01:21:23.007Z,101842.48
2019-02-21T01:23:51.502Z,101837.15
2019-02-21T01:26:19.971Z,101839.48
2019-02-21T01:28:48.467Z,101843.79
2019-02-21T01:31:16.942Z,101829.98
2019-02-21T01:33:45.417Z,101833.97
2019-02-21T01:36:13.884Z,101828.23
2019-02-21T01:38:42.458Z,101825.14
2019-02-21T01:41:10.922Z,101826.95
2019-02-21T01:43:39.425Z,101822.08
2019-02-21T01:46:07.887Z,101817.13
2019-02-21T01:48:36.375Z,101815.80
2019-02-21T01:51:04.826Z,101810.83
2019-02-21T01:53:33.311Z,101805.45
2019-02-21T01:56:01.759Z,101811.70
2019-02-21T01:58:30.244Z,101809.91
2019-02-21T02:01:07.970Z,101813.03
2019-02-21T02:03:28.999Z,101810.79
2019-02-21T02:05:57.456Z,101819.77
2019-02-21T02:08:25.938Z,101814.43
2019-02-21T02:10:54.389Z,101812.64
2019-02-21T02:13:24.925Z,101813.06
2019-02-21T02:15:53.061Z,101815.83
2019-02-21T02:18:21.545Z,101816.65
2019-02-21T02:20:50.007Z,101812.22
2019-02-21T02:23:18.508Z,101819.70
2019-02-21T02:25:46.963Z,101817.55
2019-02-21T02:28:15.414Z,101817.44
2019-02-21T02:30:43.978Z,101808.19
2019-02-21T02:33:12.451Z,101815.28
2019-02-21T02:35:40.937Z,101805.09
2019-02-21T02:38:09.394Z,101808.22
2019-02-21T02:40:37.970Z,101809.13
2019-02-21T02:43:06.477Z,101809.58
2019-02-21T02:45:34.966Z,101808.22
2019-02-21T02:48:03.455Z,101800.18
2019-02-21T02:50:33.087Z,101802.45
2019-02-21T02:53:01.563Z,101805.03
2019-02-21T02:55:30.068Z,101802.75
2019-02-21T02:57:58.539Z,101805.45
2019-02-21T03:00:27.053Z,101802.78
2019-02-21T03:02:55.571Z,101803.70
2019-02-21T03:05:24.062Z,101803.23
2019-02-21T03:07:52.556Z,101800.08
2019-02-21T03:10:21.092Z,101801.52
2019-02-21T03:12:49.573Z,101806.36
2019-02-21T03:15:18.084Z,101800.08
2019-02-21T03:17:46.568Z,101807.24
2019-02-21T03:20:15.094Z,101814.34
2019-02-21T03:22:43.565Z,101809.45
2019-02-21T03:25:12.117Z,101814.38
2019-02-21T03:27:40.592Z,101812.09
2019-02-21T03:30:12.360Z,101813.43
2019-02-21T03:32:41.166Z,101813.46
2019-02-21T03:35:09.701Z,101818.70
2019-02-21T03:37:38.191Z,101818.77
2019-02-21T03:40:09.112Z,101824.53
2019-02-21T03:42:37.587Z,101815.61
2019-02-21T03:45:09.496Z,101823.62
2019-02-21T03:47:37.982Z,101828.05
2019-02-21T03:50:11.057Z,101827.69
2019-02-21T03:52:39.528Z,101827.59
2019-02-21T03:55:08.862Z,101821.86
2019-02-21T03:57:37.469Z,101818.77
2019-02-21T04:00:11.477Z,101826.65
2019-02-21T04:02:40.023Z,101819.55
2019-02-21T04:05:08.950Z,101816.85
2019-02-21T04:07:37.429Z,101820.40
2019-02-21T04:10:07.962Z,101814.15
2019-02-21T04:12:36.412Z,101813.27
2019-02-21T04:15:06.934Z,101819.03
2019-02-21T04:17:35.483Z,101822.12
2019-02-21T04:20:05.683Z,101825.67
2019-02-21T04:22:34.173Z,101816.81
2019-02-21T04:25:02.649Z,101818.58
2019-02-21T04:27:31.121Z,101816.33
2019-02-21T04:29:59.605Z,101819.39
2019-02-21T04:32:28.089Z,101815.84
2019-02-21T04:34:56.598Z,101826.94
2019-02-21T04:37:25.056Z,101823.49
2019-02-21T04:39:53.529Z,101821.67
2019-02-21T04:42:22.010Z,101822.52
2019-02-21T04:44:50.475Z,101821.67
2019-02-21T04:47:18.984Z,101823.10
2019-02-21T04:49:47.488Z,101818.05
2019-02-21T04:52:15.975Z,101822.19
2019-02-21T04:54:44.449Z,101818.61
2019-02-21T04:57:12.930Z,101816.88
2019-02-21T04:59:41.417Z,101813.76
2019-02-21T05:02:09.896Z,101818.67
2019-02-21T05:04:38.377Z,101814.18
2019-02-21T05:07:06.869Z,101809.33
2019-02-21T05:09:35.316Z,101813.27
2019-02-21T05:12:03.820Z,101807.02
2019-02-21T05:14:32.277Z,101805.36
2019-02-21T05:17:00.829Z,101807.54
2019-02-21T05:19:29.268Z,101807.12
2019-02-21T05:21:57.755Z,101803.53
2019-02-21T05:24:26.235Z,101799.53
2019-02-21T05:26:56.353Z,101803.99
2019-02-21T05:29:24.837Z,101807.44
2019-02-21T05:32:00.962Z,101806.14
2019-02-21T05:34:36.845Z,101811.58
2019-02-21T05:37:16.114Z,101808.48
2019-02-21T05:39:52.140Z,101803.14
2019-02-21T05:42:22.284Z,101798.23
2019-02-21T05:45:10.911Z,101799.14
2019-02-21T05:47:43.262Z,101795.03
2019-02-21T05:50:19.193Z,101795.07
2019-02-21T05:53:01.623Z,101794.26
2019-02-21T05:55:31.751Z,101786.73
2019-02-21T05:58:01.902Z,101790.45
2019-02-21T06:00:37.796Z,101795.72
2019-02-21T06:03:07.943Z,101797.38
2019-02-21T06:05:54.037Z,101791.16
2019-02-21T06:08:40.294Z,101793.37
2019-02-21T06:11:10.689Z,101789.44
2019-02-21T06:13:46.443Z,101793.31
2019-02-21T06:16:34.831Z,101787.52
2019-02-21T06:19:07.505Z,101785.83
2019-02-21T06:21:37.619Z,101786.64
2019-02-21T06:24:19.798Z,101790.22
2019-02-21T06:26:52.371Z,101789.37
2019-02-21T06:29:22.791Z,101791.16
2019-02-21T06:31:51.378Z,101793.41
2019-02-21T06:34:19.885Z,101788.47
2019-02-21T06:36:48.410Z,101791.66
2019-02-21T06:39:16.861Z,101793.83
2019-02-21T06:41:45.333Z,101795.56
2019-02-21T06:44:13.830Z,101784.88
2019-02-21T06:46:42.296Z,101789.80
2019-02-21T06:49:10.795Z,101788.43
2019-02-21T06:51:39.274Z,101786.15
2019-02-21T06:54:07.757Z,101787.48
2019-02-21T06:56:36.234Z,101785.63
2019-02-21T06:59:04.728Z,101780.74
2019-02-21T07:01:33.197Z,101786.89
2019-02-21T07:04:02.015Z,101783.77
2019-02-21T07:06:32.177Z,101787.24
2019-02-21T07:09:00.944Z,101783.66
2019-02-21T07:11:29.450Z,101780.92
2019-02-21T07:13:57.924Z,101787.56
2019-02-21T07:16:26.436Z,101787.14
2019-02-21T07:18:54.867Z,101797.25
2019-02-21T07:21:23.340Z,101791.91
2019-02-21T07:23:51.858Z,101799.35
2019-02-21T07:26:20.338Z,101803.29
2019-02-21T07:28:48.818Z,101807.75
2019-02-21T07:31:28.166Z,101796.11
2019-02-21T07:33:48.392Z,101807.22
2019-02-21T07:36:17.001Z,101804.92
2019-02-21T07:38:45.454Z,101809.89
2019-02-21T07:41:14.109Z,101814.39
2019-02-21T07:43:42.606Z,101821.88
2019-02-21T07:46:11.094Z,101828.59
2019-02-21T07:48:39.645Z,101823.17
2019-02-21T07:51:08.166Z,101818.62
2019-02-21T07:53:36.654Z,101824.93
2019-02-21T07:56:05.241Z,101833.75
2019-02-21T07:58:33.708Z,101838.17
2019-02-21T08:01:02.221Z,101832.75
2019-02-21T08:03:43.446Z,101842.48
2019-02-21T08:06:00.896Z,101836.30
2019-02-21T08:08:32.256Z,101840.77
2019-02-21T08:10:59.653Z,101839.86
2019-02-21T08:13:28.116Z,101846.61
2019-02-21T08:15:56.596Z,101842.64
2019-02-21T08:18:25.081Z,101852.80
2019-02-21T08:20:53.586Z,101858.18
2019-02-21T08:23:22.040Z,101856.77
2019-02-21T08:25:50.527Z,101858.56
2019-02-21T08:28:19.006Z,101848.45
2019-02-21T08:30:47.506Z,101857.45
2019-02-21T08:33:17.626Z,101854.40
2019-02-21T08:35:46.113Z,101859.25
2019-02-21T08:38:14.613Z,101849.97
2019-02-21T08:40:43.057Z,101849.86
2019-02-21T08:43:11.581Z,101845.08
2019-02-21T08:45:40.041Z,101846.87
2019-02-21T08:48:08.527Z,101846.45
2019-02-21T08:50:37.075Z,101844.24
2019-02-21T08:53:05.586Z,101843.30
2019-02-21T08:55:34.042Z,101849.47
2019-02-21T08:58:02.523Z,101848.48
2019-02-21T09:00:31.687Z,101848.98
2019-02-21T09:03:00.543Z,101848.37
2019-02-21T09:05:29.016Z,101854.06
2019-02-21T09:07:57.647Z,101848.75
2019-02-21T09:10:27.703Z,101850.16
2019-02-21T09:12:56.440Z,101846.04
2019-02-21T09:15:24.922Z,101848.63
2019-02-21T09:17:54.335Z,101841.16
2019-02-21T09:20:23.077Z,101843.59
2019-02-21T09:22:51.591Z,101844.63
2019-02-21T09:25:20.054Z,101846.16
2019-02-21T09:27:48.558Z,101841.57
2019-02-21T09:30:18.694Z,101840.20
2019-02-21T09:32:47.232Z,101846.42
2019-02-21T09:35:15.711Z,101846.58
2019-02-21T09:37:44.208Z,101843.78
2019-02-21T09:40:14.460Z,101836.22
2019-02-21T09:42:42.911Z,101832.09
2019-02-21T09:45:17.115Z,101833.31
2019-02-21T09:47:45.615Z,101832.97
2019-02-21T09:50:14.461Z,101832.66
2019-02-21T09:52:43.014Z,101828.55
2019-02-21T09:55:14.115Z,101828.70
2019-02-21T09:57:42.617Z,101832.02
2019-02-21T10:00:13.918Z,101822.01
2019-02-21T10:02:42.419Z,101821.55
2019-02-21T10:05:10.906Z,101823.24
2019-02-21T10:07:39.397Z,101819.03
2019-02-21T10:10:13.341Z,101838.59
2019-02-21T10:12:41.829Z,101827.33
2019-02-21T10:15:12.745Z,101830.78
2019-02-21T10:17:41.329Z,101825.89
2019-02-21T10:20:17.664Z,101808.56
2019-02-21T10:22:46.168Z,101806.23
2019-02-21T10:25:17.236Z,101808.25
2019-02-21T10:27:45.786Z,101805.42
2019-02-21T10:30:16.894Z,101802.84
2019-02-21T10:32:45.386Z,101799.05
2019-02-21T10:35:13.927Z,101801.33
2019-02-21T10:37:42.426Z,101800.67
2019-02-21T10:40:13.036Z,101797.98
2019-02-21T10:42:41.619Z,101799.77
2019-02-21T10:45:12.730Z,101795.91
2019-02-21T10:47:41.254Z,101790.39
2019-02-21T10:50:15.638Z,101790.07
2019-02-21T10:52:44.148Z,101779.29
2019-02-21T10:55:12.698Z,101773.35
2019-02-21T10:57:41.335Z,101772.31
2019-02-21T11:00:27.478Z,101770.74
2019-02-21T11:02:56.067Z,101760.06
2019-02-21T11:05:24.548Z,101764.12
2019-02-21T11:07:53.124Z,101754.83
2019-02-21T11:10:24.009Z,101756.44
2019-02-21T11:12:52.524Z,101750.10
2019-02-21T11:15:25.511Z,101744.59
2019-02-21T11:17:54.353Z,101742.55
2019-02-21T11:20:23.085Z,101738.02
2019-02-21T11:22:51.589Z,101723.15
2019-02-21T11:25:20.069Z,101728.75
2019-02-21T11:27:48.638Z,101730.69
2019-02-21T11:30:19.331Z,101731.63
2019-02-21T11:32:47.823Z,101717.92
2019-02-21T11:35:16.394Z,101725.86
2019-02-21T11:37:47.078Z,101715.80
2019-02-21T11:40:18.745Z,101707.75
2019-02-21T11:42:47.226Z,101709.39
2019-02-21T11:45:18.149Z,101711.89
2019-02-21T11:47:46.752Z,101701.25
2019-02-21T11:50:19.016Z,101709.39
2019-02-21T11:52:47.486Z,101704.83
2019-02-21T11:55:18.579Z,101700.49
2019-02-21T11:57:47.226Z,101693.80
2019-02-21T12:00:21.150Z,101691.27
2019-02-21T12:02:49.769Z,101702.11
2019-02-21T12:05:30.241Z,101692.32
2019-02-21T12:07:48.470Z,101706.23
2019-02-21T12:10:17.041Z,101701.55
2019-02-21T12:12:45.522Z,101707.58
2019-02-21T12:15:15.451Z,101711.70
2019-02-21T12:17:44.001Z,101709.58
2019-02-21T12:20:14.959Z,101711.55
2019-02-21T12:22:43.443Z,101721.40
2019-02-21T12:25:14.488Z,101719.93
2019-02-21T12:27:42.967Z,101714.45
2019-02-21T12:30:14.022Z,101715.42
2019-02-21T12:32:42.570Z,101724.59
2019-02-21T12:35:11.297Z,101716.27
2019-02-21T12:37:39.770Z,101714.80
2019-02-21T12:40:19.184Z,101713.48
2019-02-21T12:42:47.682Z,101713.14
2019-02-21T12:45:18.211Z,101728.30
2019-02-21T12:47:52.960Z,101729.64
2019-02-21T12:50:16.932Z,101733.52
2019-02-21T12:52:45.407Z,101738.27
2019-02-21T12:55:26.568Z,101729.63
2019-02-21T12:57:44.873Z,101731.47
2019-02-21T13:00:15.709Z,101731.06
2019-02-21T13:02:44.183Z,101716.45
2019-02-21T13:05:12.671Z,101735.91
2019-02-21T13:07:41.130Z,101738.57
2019-02-21T13:10:21.881Z,101736.17
2019-02-21T13:12:50.351Z,101730.94
2019-02-21T13:15:18.842Z,101729.13
2019-02-21T13:17:47.333Z,101729.66
2019-02-21T13:20:15.980Z,101732.98
2019-02-21T13:22:44.630Z,101728.87
2019-02-21T13:25:15.167Z,101728.78
2019-02-21T13:27:43.648Z,101718.61
2019-02-21T13:30:14.588Z,101722.44
2019-02-21T13:32:43.063Z,101710.81
2019-02-21T13:35:11.987Z,101712.34
2019-02-21T13:37:40.461Z,101701.16
2019-02-21T13:40:21.036Z,101699.47
2019-02-21T13:42:48.464Z,101701.59
2019-02-21T13:45:18.157Z,101701.95
2019-02-21T13:47:46.735Z,101696.25
2019-02-21T13:50:19.574Z,101692.28
2019-02-21T13:52:48.101Z,101692.69
2019-02-21T13:55:16.603Z,101704.86
2019-02-21T13:57:45.085Z,101699.94
2019-02-21T14:00:23.950Z,101702.38
2019-02-21T14:02:52.439Z,101708.56
2019-02-21T14:05:20.927Z,101714.95
2019-02-21T14:07:49.440Z,101713.45
2019-02-21T14:10:18.118Z,101715.80
2019-02-21T14:12:46.591Z,101715.42
2019-02-21T14:15:25.764Z,101712.73
2019-02-21T14:17:54.213Z,101715.02
2019-02-21T14:20:22.719Z,101718.25
2019-02-21T14:22:51.180Z,101715.95
2019-02-21T14:25:19.714Z,101731.42
2019-02-21T14:27:48.187Z,101731.27
2019-02-21T14:30:21.144Z,101734.58
2019-02-21T14:32:49.583Z,101739.81
2019-02-21T14:35:18.123Z,101738.61
2019-02-21T14:37:46.610Z,101733.45
2019-02-21T14:40:16.341Z,101725.13
2019-02-21T14:42:44.810Z,101738.61
2019-02-21T14:45:21.330Z,101737.83
2019-02-21T14:47:49.820Z,101739.64
2019-02-21T14:50:18.305Z,101737.69
2019-02-21T14:52:46.806Z,101732.47
2019-02-21T14:55:17.446Z,101735.41
2019-02-21T14:57:45.982Z,101738.84
2019-02-21T15:00:25.926Z,101735.14
2019-02-21T15:02:54.473Z,101736.42
2019-02-21T15:05:22.967Z,101728.30
2019-02-21T15:07:51.451Z,101733.66
2019-02-21T15:10:20.001Z,101735.41
2019-02-21T15:12:48.487Z,101734.53
2019-02-21T15:15:21.916Z,101737.38
2019-02-21T15:17:49.703Z,101725.74
2019-02-21T15:20:18.407Z,101712.76
2019-02-21T15:22:46.919Z,101716.89
2019-02-21T15:25:15.463Z,101714.08
2019-02-21T15:27:44.193Z,101707.97
2019-02-21T15:30:25.983Z,101708.25
2019-02-21T15:32:54.486Z,101703.14
2019-02-21T15:35:22.950Z,101707.58
2019-02-21T15:37:51.455Z,101718.64
2019-02-21T15:40:19.939Z,101720.61
2019-02-21T15:42:48.453Z,101727.16
2019-02-21T15:45:27.721Z,101731.13
2019-02-21T15:47:56.226Z,101739.85
2019-02-21T15:50:24.696Z,101730.98
2019-02-21T15:52:55.704Z,101735.20
2019-02-21T15:55:24.158Z,101739.44
2019-02-21T15:58:03.246Z,101737.34
2019-02-21T16:00:24.381Z,101736.08
2019-02-21T16:02:52.863Z,101730.77
2019-02-21T16:05:21.368Z,101730.77
2019-02-21T16:07:49.856Z,101724.84
2019-02-21T16:10:28.068Z,101721.48
2019-02-21T16:12:57.130Z,101727.16
2019-02-21T16:15:25.928Z,101723.55
2019-02-21T16:17:54.439Z,101712.81
2019-02-21T16:20:23.014Z,101712.53
2019-02-21T16:22:51.505Z,101718.80
2019-02-21T16:25:24.765Z,101719.23
2019-02-21T16:27:55.313Z,101718.70
2019-02-21T16:30:23.574Z,101714.77
2019-02-21T16:32:52.068Z,101720.99
2019-02-21T16:35:20.530Z,101725.41
2019-02-21T16:37:49.033Z,101724.27
2019-02-21T16:40:19.050Z,101729.19
2019-02-21T16:42:47.555Z,101730.97
2019-02-21T16:45:17.767Z,101739.38
2019-02-21T16:47:46.320Z,101730.38
2019-02-21T16:50:15.379Z,101731.38
2019-02-21T16:52:44.198Z,101738.09
2019-02-21T16:55:23.944Z,101731.41
2019-02-21T16:57:52.416Z,101734.55
2019-02-21T17:00:22.893Z,101734.08
2019-02-21T17:02:51.424Z,101727.43
2019-02-21T17:05:20.067Z,101724.28
2019-02-21T17:07:48.556Z,101729.31
2019-02-21T17:10:17.672Z,101731.63
2019-02-21T17:12:46.176Z,101735.06
2019-02-21T17:15:16.817Z,101745.38
2019-02-21T17:17:45.343Z,101745.81
2019-02-21T17:20:19.231Z,101750.23
2019-02-21T17:22:47.733Z,101743.52
2019-02-21T17:25:16.583Z,101744.52
2019-02-21T17:27:46.123Z,101750.23
2019-02-21T17:30:16.366Z,101750.30
2019-02-21T17:32:44.967Z,101750.30
2019-02-21T17:35:13.882Z,101751.86
2019-02-21T17:37:42.365Z,101752.91
2019-02-21T17:40:19.580Z,101755.59
2019-02-21T17:42:48.070Z,101762.35
2019-02-21T17:45:16.711Z,101758.86
2019-02-21T17:47:45.201Z,101754.72
2019-02-21T17:50:20.283Z,101757.01
2019-02-21T17:52:50.350Z,101748.96
2019-02-21T17:55:19.248Z,101757.11
2019-02-21T17:57:47.872Z,101764.23
2019-02-21T18:00:20.793Z,101762.84
2019-02-21T18:02:49.301Z,101771.81
2019-02-21T18:05:17.778Z,101775.88
2019-02-21T18:07:46.272Z,101776.09
2019-02-21T18:10:16.394Z,101771.27
2019-02-21T18:12:44.917Z,101779.01
2019-02-21T18:15:15.582Z,101787.33
2019-02-21T18:17:44.052Z,101783.97
2019-02-21T18:20:16.455Z,101785.66
2019-02-21T18:22:45.474Z,101789.22
2019-02-21T18:25:29.469Z,101791.48
2019-02-21T18:27:57.969Z,101792.84
2019-02-21T18:30:26.451Z,101792.42
2019-02-21T18:32:54.920Z,101790.23
2019-02-21T18:35:23.470Z,101792.97
2019-02-21T18:37:52.015Z,101786.91
2019-02-21T18:40:22.559Z,101793.73
2019-02-21T18:42:51.044Z,101790.80
2019-02-21T18:45:19.543Z,101789.30
2019-02-21T18:47:48.019Z,101787.95
2019-02-21T18:50:16.522Z,101781.31
2019-02-21T18:52:44.990Z,101781.06
2019-02-21T18:55:13.577Z,101788.47
2019-02-21T18:57:42.064Z,101787.91
2019-02-21T19:00:24.702Z,101787.03
2019-02-21T19:02:53.161Z,101785.34
2019-02-21T19:05:22.125Z,101786.61
2019-02-21T19:08:00.446Z,101782.58
2019-02-21T19:10:21.770Z,101784.36
2019-02-21T19:12:50.264Z,101780.61
2019-02-21T19:15:20.091Z,101782.05
2019-02-21T19:17:48.580Z,101782.81
2019-02-21T19:20:21.358Z,101786.31
2019-02-21T19:22:50.178Z,101780.82
2019-02-21T19:25:18.897Z,101784.73
2019-02-21T19:27:47.379Z,101782.52
2019-02-21T19:30:36.887Z,101785.83
2019-02-21T19:33:05.478Z,101779.89
2019-02-21T19:35:33.986Z,101781.12
2019-02-21T19:38:10.341Z,101782.58
2019-02-21T19:40:32.798Z,101777.20
2019-02-21T19:43:01.366Z,101775.98
2019-02-21T19:45:29.928Z,101775.92
2019-02-21T19:47:58.438Z,101778.56
2019-02-21T19:50:26.995Z,101785.24
2019-02-21T19:52:55.476Z,101780.77
2019-02-21T19:55:24.037Z,101777.73
2019-02-21T19:57:52.490Z,101778.66
2019-02-21T20:00:30.615Z,101779.06
2019-02-21T20:02:59.097Z,101772.08
2019-02-21T20:05:27.852Z,101768.92
2019-02-21T20:07:56.406Z,101774.12
2019-02-21T20:10:26.389Z,101780.16
2019-02-21T20:12:56.505Z,101776.56
2019-02-21T20:15:25.005Z,101783.97
2019-02-21T20:17:53.483Z,101779.29
2019-02-21T20:20:24.707Z,101783.35
2019-02-21T20:22:53.267Z,101786.97
2019-02-21T20:25:21.812Z,101783.47
2019-02-21T20:27:50.352Z,101783.09
2019-02-21T20:30:20.450Z,101786.50
2019-02-21T20:32:48.926Z,101789.33
2019-02-21T20:35:17.447Z,101787.47
2019-02-21T20:37:45.916Z,101797.27
2019-02-21T20:40:14.550Z,101788.34
2019-02-21T20:42:43.150Z,101792.00
2019-02-21T20:45:16.077Z,101793.40
2019-02-21T20:47:44.528Z,101796.02
2019-02-21T20:50:13.299Z,101785.73
2019-02-21T20:52:41.861Z,101792.00
2019-02-21T20:55:11.457Z,101797.38
2019-02-21T20:57:39.935Z,101792.17
2019-02-21T21:00:11.375Z,101783.20
2019-02-21T21:02:39.842Z,101793.40
2019-02-21T21:05:08.579Z,101792.42
2019-02-21T21:07:37.038Z,101789.44
2019-02-21T21:10:09.331Z,101795.31
2019-02-21T21:12:37.817Z,101794.48
2019-02-21T21:15:09.585Z,101799.67
2019-02-21T21:17:38.313Z,101804.06
2019-02-21T21:20:16.569Z,101806.42
2019-02-21T21:22:39.733Z,101815.02
2019-02-21T21:25:10.944Z,101806.17
2019-02-21T21:27:39.418Z,101816.41
2019-02-21T21:30:10.664Z,101814.56
2019-02-21T21:32:39.146Z,101817.75
2019-02-21T21:35:07.895Z,101815.58
2019-02-21T21:37:36.374Z,101824.34
2019-02-21T21:40:16.221Z,101825.27
2019-02-21T21:42:44.765Z,101828.36
2019-02-21T21:45:17.777Z,101835.19
2019-02-21T21:47:46.260Z,101837.03
2019-02-21T21:50:16.885Z,101838.23
2019-02-21T21:52:45.399Z,101839.58
2019-02-21T21:55:14.327Z,101836.06
2019-02-21T21:57:42.852Z,101838.80
2019-02-21T22:00:22.538Z,101846.27
2019-02-21T22:02:51.277Z,101840.13
2019-02-21T22:05:20.208Z,101841.88
2019-02-21T22:07:49.521Z,101847.66
2019-02-21T22:10:19.854Z,101847.30
2019-02-21T22:12:48.334Z,101854.34
2019-02-21T22:15:20.923Z,101850.70
2019-02-21T22:17:49.397Z,101861.50
2019-02-21T22:20:17.881Z,101854.72
2019-02-21T22:22:46.359Z,101855.31
2019-02-21T22:25:15.119Z,101867.73
2019-02-21T22:27:43.598Z,101863.20
2019-02-21T22:30:15.143Z,101857.89
2019-02-21T22:32:43.660Z,101864.21
2019-02-21T22:35:12.239Z,101859.16
2019-02-21T22:37:40.720Z,101864.16
2019-02-21T22:40:11.628Z,101866.71
2019-02-21T22:42:40.122Z,101866.71
2019-02-21T22:45:09.943Z,101863.20
2019-02-21T22:47:38.446Z,101875.75
2019-02-21T22:50:10.267Z,101873.22
2019-02-21T22:52:38.760Z,101875.39
2019-02-21T22:55:10.187Z,101876.73
2019-02-21T22:57:38.476Z,101878.95
2019-02-21T23:00:32.952Z,101877.61
2019-02-21T23:03:02.081Z,101876.73
2019-02-21T23:05:51.411Z,101887.52
2019-02-21T23:08:28.315Z,101883.05
2019-02-21T23:10:56.804Z,101883.92
2019-02-21T23:13:25.308Z,101888.36
2019-02-21T23:15:53.792Z,101890.11
2019-02-21T23:18:22.322Z,101893.76
2019-02-21T23:20:50.783Z,101896.84
2019-02-21T23:23:19.284Z,101890.99
2019-02-21T23:25:47.768Z,101896.80
2019-02-21T23:28:16.282Z,101902.70
2019-02-21T23:30:44.814Z,101905.43
2019-02-21T23:33:13.337Z,101908.47
2019-02-21T23:35:41.805Z,101898.64
2019-02-21T23:38:10.307Z,101910.69
2019-02-21T23:40:38.788Z,101905.76
2019-02-21T23:43:07.305Z,101916.96
2019-02-21T23:45:35.775Z,101912.95
2019-02-21T23:48:04.361Z,101917.38
2019-02-21T23:50:32.833Z,101913.41
2019-02-21T23:53:01.337Z,101917.01
2019-02-21T23:55:29.808Z,101921.56
2019-02-21T23:57:58.296Z,101918.89
